Flight Track Log - Related Links

Times and Time Zones

All times are in EDT time to prevent confusion due to time zone crossing. See the N78ML flight status page for this flight to view local times or setup timezone preferences in your user account.


Time Position Orientation Groundspeed Altitude Reporting Facility
EDT Latitude Longitude Course Direction KTS MPH feet Rate Location/Type
Sat 06:44:14 PM 33.1333 -117.3000 270° West 88 101 600  Level Southern California TRACON
Sat 06:45:09 PM 33.1333 -117.3167 270° West 107 123 1,100 678 Climbing Southern California TRACON
Sat 06:46:09 PM 33.1167 -117.3500 239° Southwest 98 113 1,900 800 Climbing Southern California TRACON
Sat 06:47:09 PM 33.1333 -117.3667 320° Northwest 96 110 2,700 800 Climbing Southern California TRACON
Sat 06:48:09 PM 33.1667 -117.3833 337° Northwest 93 107 3,500 744 Climbing Southern California TRACON
Sat 06:49:10 PM 33.1833 -117.4000 320° Northwest 91 105 4,200 694 Climbing Southern California TRACON
Sat 06:50:10 PM 33.2167 -117.4000 360° North 100 115 4,900 650 Climbing Southern California TRACON
Sat 06:51:10 PM 33.2500 -117.4167 337° Northwest 111 128 5,500 550 Climbing Southern California TRACON
Sat 06:52:10 PM 33.2667 -117.4500 301° West 121 139 6,000 250 Climbing Southern California TRACON
Sat 06:53:10 PM 33.3000 -117.4833 320° Northwest 146 168 6,000  Level Southern California TRACON
Sat 06:54:10 PM 33.3167 -117.5167 301° West 144 166 6,000  Level Southern California TRACON
Sat 06:55:10 PM 33.3500 -117.5500 320° Northwest 141 162 6,000  Level Southern California TRACON
Sat 06:56:10 PM 33.3833 -117.5833 320° Northwest 141 162 6,000  Level Southern California TRACON
Sat 06:57:10 PM 33.4000 -117.6000 320° Northwest 139 160 6,000  Level Southern California TRACON
Sat 06:58:11 PM 33.4333 -117.6333 320° Northwest 140 161 6,000  Level Southern California TRACON
Sat 06:59:11 PM 33.4667 -117.6667 320° Northwest 139 160 6,000  Level Southern California TRACON
Sat 07:00:11 PM 33.4833 -117.7000 301° West 136 157 6,000  Level Southern California TRACON
Sat 07:01:11 PM 33.5167 -117.7333 320° Northwest 135 155 6,000  Level Southern California TRACON
Sat 07:02:11 PM 33.5333 -117.7667 301° West 134 154 6,000 50 Level Southern California TRACON
Sat 07:03:11 PM 33.5667 -117.8000 320° Northwest 138 159 6,100 48 Climbing Southern California TRACON
Sat 07:04:17 PM 33.6000 -117.8333 320° Northwest 136 157 6,100  Level Southern California TRACON
Sat 07:05:11 PM 33.6167 -117.8667 301° West 136 157 6,100  Level Southern California TRACON
Sat 07:06:11 PM 33.6500 -117.9000 320° Northwest 135 155 6,100  Level Southern California TRACON
Sat 07:07:12 PM 33.6667 -117.9333 301° West 134 154 6,100  Level Southern California TRACON
Sat 07:08:12 PM 33.7000 -117.9667 320° Northwest 136 157 6,100  Level Southern California TRACON
Sat 07:09:12 PM 33.7167 -118.0000 301° West 138 159 6,100  Level Southern California TRACON
Sat 07:10:12 PM 33.7333 -118.0500 292° West 142 163 6,100  Level Southern California TRACON
Sat 07:11:18 PM 33.7500 -118.0833 301° West 134 154 6,100  Level Southern California TRACON
Sat 07:12:18 PM 33.7833 -118.1167 320° Northwest 133 153 6,100  Level Southern California TRACON
Sat 07:12:57 PM 33.7861 -118.1422 277° West 133 153 6,100 -59 Level Los Angeles Center
Sat 07:13:59 PM 33.8058 -118.1803 302° West 135 155 6,000 -44 Descending Los Angeles Center
Sat 07:15:12 PM 33.8283 -118.2247 301° West 132 152 6,000  Level Los Angeles Center
Sat 07:16:14 PM 33.8503 -118.2692 301° West 131 151 6,000  Level Los Angeles Center
Sat 07:17:16 PM 33.8700 -118.3056 303° West 131 151 6,000  Level Los Angeles Center
Sat 07:18:18 PM 33.8878 -118.3428 300° West 131 151 6,000  Level Los Angeles Center
Sat 07:19:20 PM 33.9064 -118.3800 301° West 130 150 6,000  Level Los Angeles Center
Sat 07:20:21 PM 33.9289 -118.4244 301° West 130 150 6,000  Level Los Angeles Center
Sat 07:21:23 PM 33.9558 -118.4531 319° Northwest 137 158 6,000  Level Los Angeles Center
Sat 07:22:25 PM 33.9708 -118.4947 293° West 134 154 6,000  Level Los Angeles Center
Sat 07:23:27 PM 33.9825 -118.5372 288° West 133 153 6,000  Level Los Angeles Center
Sat 07:24:28 PM 33.9944 -118.5819 288° West 131 151 6,000  Level Los Angeles Center
Sat 07:25:30 PM 34.0056 -118.6250 287° West 133 153 6,000  Level Los Angeles Center
Sat 07:26:32 PM 34.0169 -118.6669 288° West 133 153 6,000  Level Los Angeles Center
Sat 07:27:34 PM 34.0286 -118.7133 287° West 135 155 6,000  Level Los Angeles Center
Sat 07:28:35 PM 34.0394 -118.7558 287° West 133 153 6,000  Level Los Angeles Center
Sat 07:29:37 PM 34.0497 -118.7958 287° West 132 152 6,000  Level Los Angeles Center
Sat 07:30:39 PM 34.0606 -118.8386 287° West 133 153 6,000  Level Los Angeles Center
Sat 07:31:41 PM 34.0697 -118.8889 282° West 136 157 6,000  Level Los Angeles Center
Sat 07:32:42 PM 34.0814 -118.9250 291° West 134 154 6,000  Level Los Angeles Center
Sat 07:33:44 PM 34.0936 -118.9758 286° West 133 153 6,000  Level Los Angeles Center
Sat 07:34:43 PM 34.1053 -119.0178 289° West 134 154 6,000  Level Los Angeles Center
Sat 07:35:47 PM 34.1175 -119.0606 289° West 134 154 6,000  Level Los Angeles Center
Sat 07:36:49 PM 34.1344 -119.0997 298° West 133 153 6,000  Level Los Angeles Center
Sat 07:37:51 PM 34.1531 -119.1389 300° West 135 155 6,000 -49 Level Los Angeles Center
Sat 07:38:52 PM 34.1700 -119.1783 297° West 132 152 5,900 -253 Descending Los Angeles Center
Sat 07:39:26 PM 34.1819 -119.2092 295° West 140 161 5,600 -585 Descending Los Angeles Center
Sat 07:40:14 PM 34.1969 -119.2458 296° West 146 168 5,100 -533 Descending Los Angeles Center
Sat 07:40:56 PM 34.2089 -119.2756 296° West 148 170 4,800 -462 Descending Los Angeles Center
Sat 07:41:58 PM 34.2275 -119.3178 298° West 145 167 4,300 -390 Descending Los Angeles Center
Sat 07:42:59 PM 34.2425 -119.3592 294° West 141 162 4,000 -146 Descending Los Angeles Center
Sat 07:44:01 PM 34.2567 -119.3953 295° West 130 150 4,000  Level Los Angeles Center
Sat 07:45:03 PM 34.2708 -119.4275 298° West 119 137 4,000  Level Los Angeles Center
Sat 07:46:05 PM 34.2878 -119.4603 302° West 115 132 4,000  Level Los Angeles Center
Sat 07:47:06 PM 34.3003 -119.4972 292° West 117 135 4,000 -98 Level Los Angeles Center
Sat 07:48:08 PM 34.3153 -119.5372 294° West 112 129 3,800 -339 Descending Los Angeles Center
Sat 07:49:10 PM 34.3317 -119.5739 298° West 117 135 3,300 -435 Descending Los Angeles Center
Sat 07:50:12 PM 34.3467 -119.6147 294° West 125 144 2,900 -439 Descending Los Angeles Center
Sat 07:51:13 PM 34.3614 -119.6547 294° West 129 148 2,400 -390 Descending Los Angeles Center
Sat 07:52:15 PM 34.3792 -119.6931 299° West 130 150 2,100 -242 Descending Los Angeles Center
Sat 07:53:17 PM 34.3911 -119.7289 292° West 123 142 1,900 -484 Descending Los Angeles Center
Sat 07:54:19 PM 34.4081 -119.7761 294° West 124 143 1,100 -634 Descending Los Angeles Center
Sat 07:55:20 PM 34.4203 -119.8069 296° West 115 132 600 -439 Descending Los Angeles Center
Sat 07:56:22 PM 34.4281 -119.8311 291° West 94 108 200 -387 Descending Los Angeles Center
Sat 07:58:00 PM 34.4262 -119.8415 258° West  Level Estimated

Login

Don't have an account? Register now (free) for customized features, flight alerts, and more!